Airfield :
LOGIN :

Register | Disclaimer

   EN    FR    IT 

 










Legend :    VFR   Marginal VFR   IFR   Intensive IFR   Very Intensive IFR
Visi :
Ceiling :
>= 8 km
>= 3000ft
5 to 8 km
1000 to 3000 ft
1500m to 5 km
500 to 1000 ft
800 to 1500m
200 to 500 ft
< 800m
< 200 ft
Symbols :   Thunderstorms  Fog  Heavy snow  Heavy precipitations  Wind > 20 kt
SIGMETs :     Misc.  Thunderstorms  Icing  Turbulence  Mountain Waves  Volcanic Ashes







- Airport Elevation : 194 ft
- IATA code : LME
- Download approach charts


LFRM - Le Mans

CURRENT METAR :
  • 241200Z AUTO 20008KT 160V240 9999 FEW016/// SCT031/// BKN049/// ///TCU 13/10 Q0998 BECMG SCT020 BKN035

EXPIRED METARs :
  • 241130Z AUTO 22010KT 190V270 9999 -DZ SCT010 BKN016 BKN030 11/09 Q0998 NOSIG
  • 241100Z AUTO 18007KT 140V220 9999 BKN010 BKN016 BKN024 12/10 Q0998 TEMPO 4000 SHRA BKN007 BKN020CB
  • 241030Z AUTO 19007KT 160V230 9999 -RA BKN012 BKN018 OVC024 11/10 Q0998 TEMPO 4000 SHRA BKN007 BKN020CB
  • 241000Z AUTO 19007KT 150V220 9999 BKN012 BKN017 OVC022 11/10 Q0998 TEMPO 4000 SHRA BKN007 BKN020CB
  • 240930Z AUTO 20008KT 170V230 9999 BKN012 OVC017 11/09 Q0998 TEMPO 4000 SHRA BKN007 BKN020CB

TAF AMD TAF LFRM
Valid from the 24 at 07:00 until the 25 at 06:00 UTC


240714Z 2407/2506 21008KT 9999 SCT012 BKN050
TEMPO 2407/2506 4000 SHRA BKN007 BKN020CB
PROB40
TEMPO 2414/2420 VRB15G25KT 2000 TSRA BKN012 BKN020CB
BECMG 2418/2421 14010KT
BECMG 2422/2424 20010KT
No reported NOTAMs for that airfield.
1 SIGMET reported for the Paris FIR (LFFF) :
 
Severe turbulence
LFFF SIGMET 4 VALID 241100/241500 LFPW
LFFF PARIS FIR/UIR SEV TURB FCST WI N4900 E00445 - N4830 E00530 - N4730 E00415 - N4630 E00445 - N4630 E00330 - N4900 E00415 - N4900 E00445 SFC/FL100 STNR INTSF=



MET'MAP, your aeronautical weather chart ! - Copyright ORBIFLY December 2007 - Disclaimer

ORBIFLY MET'MAP TEAM :

Programming & Development : Alexandra Zaïnal
Concept & Development : Baudouin d'Aumeries
Co-Development & Prog : Marc-Olivier Méhu
Technical & hardware support : Manuel Goepfert

Contact : metmap@orbifly.com




SOURCES & CREDITS :

   NOAA